Time;durP1;ratioP1;P1;durP2;ratioP2;P2;SDS_P1;SDS_P2;PMS_P1;PMS_P2;Temp;Humidity;BMP_temperature;BMP_pressure;BME280_temperature;BME280_humidity;BME280_pressure;Samples;Min_cycle;Max_cycle;Signal;HPM_P1;HPM_P2
2023/03/25 00:00:56;;;;;;;0.38;0.38;;;10.10;99.90;;;;;;5057487;28;20017;-64
2023/03/25 00:03:42;;;;;;;0.70;0.30;;;10.10;99.90;;;;;;5058544;28;20051;-64
2023/03/25 00:06:09;;;;;;;0.20;0.20;;;10.10;99.90;;;;;;5058172;28;20024;-64
2023/03/25 00:08:35;;;;;;;0.65;0.38;;;10.10;99.90;;;;;;5057284;28;20025;-64
2023/03/25 00:11:03;;;;;;;0.40;0.10;;;10.10;99.90;;;;;;5057392;28;20021;-64
2023/03/25 00:13:30;;;;;;;5.35;0.25;;;10.10;99.90;;;;;;5057354;28;20029;-64
2023/03/25 00:15:57;;;;;;;0.38;0.25;;;10.10;99.90;;;;;;5057022;28;20032;-64
2023/03/25 00:18:24;;;;;;;1.50;0.25;;;10.00;99.90;;;;;;5057466;28;20021;-64
2023/03/25 00:20:51;;;;;;;2.30;0.30;;;10.10;99.90;;;;;;5056924;28;20068;-64
2023/03/25 00:23:19;;;;;;;1.10;0.20;;;10.10;99.90;;;;;;5057430;28;20025;-64
2023/03/25 00:25:44;;;;;;;0.60;0.30;;;10.10;99.90;;;;;;5057655;28;20112;-63
2023/03/25 00:28:15;;;;;;;0.30;0.20;;;10.00;99.90;;;;;;5056856;28;20118;-63
2023/03/25 00:30:42;;;;;;;0.68;0.30;;;10.00;99.90;;;;;;5057204;28;20025;-63
2023/03/25 00:33:12;;;;;;;0.50;0.20;;;9.90;99.90;;;;;;5056612;28;20025;-63
2023/03/25 00:35:43;;;;;;;4.60;0.30;;;10.00;99.90;;;;;;5057888;28;20029;-63
2023/03/25 00:38:11;;;;;;;0.20;0.10;;;10.00;99.90;;;;;;5057795;28;20021;-63
2023/03/25 00:40:37;;;;;;;2.33;0.10;;;9.80;99.90;;;;;;5056655;28;20037;-63
2023/03/25 00:43:09;;;;;;;0.10;0.10;;;9.80;99.90;;;;;;5055851;28;20041;-63
2023/03/25 00:45:35;;;;;;;0.32;0.30;;;9.80;99.90;;;;;;5057394;28;20028;-63
2023/03/25 00:48:00;;;;;;;0.22;0.10;;;9.60;99.90;;;;;;5057680;28;20028;-63
2023/03/25 00:50:26;;;;;;;1.08;0.20;;;9.60;99.90;;;;;;5056563;28;20053;-63
2023/03/25 00:52:55;;;;;;;0.10;0.10;;;9.60;99.90;;;;;;5057549;28;20060;-63
2023/03/25 00:55:21;;;;;;;1.35;0.45;;;9.70;99.90;;;;;;5057276;28;20036;-63
2023/03/25 00:57:47;;;;;;;0.35;0.20;;;9.70;99.90;;;;;;5056418;28;20108;-63
2023/03/25 01:00:15;;;;;;;0.28;0.20;;;9.70;99.90;;;;;;5056358;28;20021;-63
2023/03/25 01:02:41;;;;;;;2.28;0.43;;;9.70;99.90;;;;;;5056343;28;20112;-63
2023/03/25 01:05:09;;;;;;;0.90;0.20;;;9.60;99.90;;;;;;5056304;28;20056;-63
2023/03/25 01:07:35;;;;;;;1.05;0.40;;;9.50;99.90;;;;;;5056967;28;20028;-63
2023/03/25 01:10:01;;;;;;;1.80;0.50;;;9.50;99.90;;;;;;5057411;28;20036;-63
2023/03/25 01:12:27;;;;;;;0.73;0.30;;;9.30;99.90;;;;;;5056985;28;20025;-63
2023/03/25 01:14:53;;;;;;;1.15;0.43;;;9.30;99.90;;;;;;5056092;28;20025;-63
2023/03/25 01:17:36;;;;;;;3.72;0.43;;;9.30;99.90;;;;;;5056422;28;20029;-63
2023/03/25 01:20:04;;;;;;;2.40;0.43;;;9.40;99.90;;;;;;5056357;28;20025;-63
2023/03/25 01:22:30;;;;;;;2.13;0.30;;;9.40;99.90;;;;;;5056430;28;20086;-63
2023/03/25 01:24:56;;;;;;;3.63;0.80;;;9.40;99.90;;;;;;5056097;28;20123;-63
2023/03/25 01:27:23;;;;;;;2.83;0.30;;;9.40;99.90;;;;;;5056323;28;20114;-63
2023/03/25 01:29:49;;;;;;;1.17;0.30;;;9.50;99.90;;;;;;5055980;28;20040;-63
2023/03/25 01:32:15;;;;;;;0.30;0.20;;;9.50;99.90;;;;;;5055919;28;20033;-63
2023/03/25 01:34:41;;;;;;;2.05;0.15;;;9.40;99.90;;;;;;5056885;28;20029;-63
2023/03/25 01:37:08;;;;;;;1.80;0.22;;;9.40;99.90;;;;;;5056616;28;20030;-63
2023/03/25 01:39:35;;;;;;;1.17;0.32;;;9.40;99.90;;;;;;5055839;28;20025;-63
2023/03/25 01:42:01;;;;;;;0.93;0.20;;;9.30;99.90;;;;;;5056787;28;20091;-63
2023/03/25 01:44:28;;;;;;;0.93;0.20;;;9.30;99.90;;;;;;5056026;28;20040;-63
2023/03/25 01:46:54;;;;;;;0.40;0.20;;;9.40;99.90;;;;;;5056720;28;20032;-63
2023/03/25 01:49:28;;;;;;;1.08;0.38;;;9.40;99.90;;;;;;5056655;28;20025;-63
2023/03/25 01:52:03;;;;;;;1.13;0.22;;;9.40;99.90;;;;;;5055807;28;20031;-63
2023/03/25 01:54:29;;;;;;;2.70;0.28;;;9.40;99.90;;;;;;5055736;28;20035;-63
2023/03/25 01:56:55;;;;;;;1.42;0.55;;;9.40;99.90;;;;;;5055801;28;20029;-63
2023/03/25 01:59:25;;;;;;;1.52;0.32;;;9.40;99.90;;;;;;5056497;28;20021;-63
2023/03/25 02:01:52;;;;;;;1.35;0.22;;;9.40;99.90;;;;;;5056741;28;20032;-63
2023/03/25 02:04:37;;;;;;;1.45;0.30;;;9.50;99.90;;;;;;5055914;28;20087;-63
2023/03/25 02:07:07;;;;;;;2.03;0.43;;;9.50;99.90;;;;;;5056847;28;20093;-63
2023/03/25 02:09:33;;;;;;;1.05;0.73;;;9.50;99.90;;;;;;5055546;28;20021;-63
2023/03/25 02:11:58;;;;;;;0.35;0.28;;;9.50;99.90;;;;;;5056449;28;20040;-63
2023/03/25 02:14:27;;;;;;;2.90;0.25;;;9.60;99.90;;;;;;5056062;28;20116;-63
2023/03/25 02:17:15;;;;;;;5.05;0.40;;;9.60;99.90;;;;;;5056478;28;20027;-63
2023/03/25 02:19:50;;;;;;;4.28;0.43;;;9.60;99.90;;;;;;5055860;28;20021;-63
2023/03/25 02:22:46;;;;;;;1.30;0.30;;;9.50;99.90;;;;;;5055904;28;20048;-63
2023/03/25 02:25:57;;;;;;;1.50;0.25;;;9.50;99.90;;;;;;5056371;28;20033;-63
2023/03/25 02:28:38;;;;;;;2.35;0.98;;;9.60;99.90;;;;;;5055479;28;20120;-63
2023/03/25 02:31:41;;;;;;;2.90;0.50;;;9.60;99.90;;;;;;5056106;28;20033;-63
2023/03/25 02:34:38;;;;;;;4.85;0.40;;;9.60;99.90;;;;;;5056063;28;20032;-63
2023/03/25 02:37:45;;;;;;;0.25;0.20;;;9.70;99.90;;;;;;5055539;28;20017;-63
2023/03/25 02:40:27;;;;;;;0.85;0.52;;;9.70;99.90;;;;;;5057354;28;20017;-63
2023/03/25 02:43:10;;;;;;;0.73;0.25;;;9.70;99.90;;;;;;5059846;28;20108;-63
2023/03/25 02:45:45;;;;;;;1.27;0.45;;;9.80;99.90;;;;;;5059673;28;20035;-63
2023/03/25 02:48:18;;;;;;;0.93;0.40;;;9.70;99.90;;;;;;5059763;28;20029;-63
2023/03/25 02:50:54;;;;;;;5.45;0.63;;;9.60;99.90;;;;;;5059418;28;20089;-63
2023/03/25 02:53:26;;;;;;;1.05;0.28;;;9.50;99.90;;;;;;5058612;28;20116;-63
2023/03/25 02:55:58;;;;;;;0.90;0.40;;;9.50;99.90;;;;;;5059487;28;20021;-63
2023/03/25 02:58:26;;;;;;;1.48;0.17;;;9.40;99.90;;;;;;5058931;28;20032;-63
2023/03/25 03:00:57;;;;;;;3.42;0.40;;;9.30;99.90;;;;;;5059340;28;20028;-63
2023/03/25 03:03:23;;;;;;;3.33;0.47;;;9.30;99.90;;;;;;5059513;28;20017;-63
2023/03/25 03:05:51;;;;;;;1.50;0.73;;;9.30;99.90;;;;;;5058353;28;20025;-63
2023/03/25 03:08:20;;;;;;;5.05;0.70;;;9.10;99.90;;;;;;5059258;28;20029;-63
2023/03/25 03:10:51;;;;;;;2.40;0.35;;;9.00;99.90;;;;;;5058546;28;20044;-63
2023/03/25 03:13:54;;;;;;;2.33;0.40;;;9.00;99.90;;;;;;5059416;28;20025;-63
2023/03/25 03:16:44;;;;;;;8.30;0.88;;;9.00;99.90;;;;;;5058333;28;20071;-63
2023/03/25 03:19:38;;;;;;;2.10;0.35;;;9.10;99.90;;;;;;5059068;28;20059;-63
2023/03/25 03:22:13;;;;;;;8.10;0.95;;;9.00;99.90;;;;;;5058194;28;20028;-63
2023/03/25 03:24:46;;;;;;;0.73;0.35;;;8.90;99.90;;;;;;5058090;28;20033;-63
2023/03/25 03:27:32;;;;;;;2.58;0.43;;;8.90;99.90;;;;;;5058700;28;20024;-63
2023/03/25 03:30:31;;;;;;;2.17;0.43;;;8.90;99.90;;;;;;5058913;28;20017;-63
2023/03/25 03:33:24;;;;;;;1.48;0.50;;;8.80;99.90;;;;;;5058909;28;20017;-63
2023/03/25 03:36:03;;;;;;;3.03;0.65;;;8.80;99.90;;;;;;5056374;28;20037;-63
2023/03/25 03:38:34;;;;;;;2.67;0.30;;;8.80;99.90;;;;;;5058479;28;20025;-63
2023/03/25 03:41:04;;;;;;;2.25;0.60;;;8.70;99.90;;;;;;5057316;28;20021;-63
2023/03/25 03:43:36;;;;;;;3.28;0.73;;;8.60;99.90;;;;;;5057687;28;20024;-63
2023/03/25 03:46:06;;;;;;;0.40;0.20;;;8.50;99.90;;;;;;5057768;28;20025;-63
2023/03/25 03:48:39;;;;;;;0.90;0.30;;;8.60;99.90;;;;;;5058661;28;20055;-63
2023/03/25 03:51:10;;;;;;;1.13;0.30;;;8.60;99.90;;;;;;5057311;28;20064;-63
2023/03/25 03:53:42;;;;;;;4.82;0.70;;;8.70;99.90;;;;;;5058406;28;20021;-63
2023/03/25 03:56:15;;;;;;;5.82;0.40;;;8.80;99.90;;;;;;5057597;28;20116;-63
2023/03/25 03:58:41;;;;;;;7.63;1.17;;;8.80;99.90;;;;;;5057752;28;20028;-63
2023/03/25 04:01:29;;;;;;;1.55;0.35;;;8.90;99.90;;;;;;5058374;28;20096;-63
2023/03/25 04:03:56;;;;;;;1.40;0.40;;;8.90;99.90;;;;;;5057397;28;20021;-63
2023/03/25 04:06:41;;;;;;;0.30;0.30;;;8.80;99.90;;;;;;5057799;28;20029;-63
2023/03/25 04:09:26;;;;;;;1.38;0.70;;;8.80;99.90;;;;;;5058240;28;20029;-63
2023/03/25 04:12:09;;;;;;;1.15;0.38;;;8.90;99.90;;;;;;5058212;28;20028;-63
2023/03/25 04:14:36;;;;;;;5.07;0.52;;;8.90;99.90;;;;;;5057901;28;20025;-64
2023/03/25 04:17:04;;;;;;;0.63;0.38;;;8.90;99.90;;;;;;5057433;28;20056;-63
2023/03/25 04:19:32;;;;;;;1.05;0.45;;;9.00;99.90;;;;;;5057107;28;20055;-63
2023/03/25 04:22:00;;;;;;;3.00;0.50;;;9.00;99.90;;;;;;5057829;28;20020;-63
2023/03/25 04:24:30;;;;;;;2.33;0.40;;;9.00;99.90;;;;;;5057774;28;20029;-63
2023/03/25 04:26:56;;;;;;;5.88;0.60;;;9.00;99.90;;;;;;5056938;28;20055;-63
2023/03/25 04:29:22;;;;;;;3.10;0.50;;;9.00;99.90;;;;;;5057259;28;20035;-63
2023/03/25 04:31:48;;;;;;;5.75;1.17;;;8.90;99.90;;;;;;5056724;28;20025;-63
2023/03/25 04:34:14;;;;;;;1.92;0.77;;;8.90;99.90;;;;;;5056980;28;20060;-63
2023/03/25 04:36:41;;;;;;;2.33;0.70;;;8.90;99.90;;;;;;5056763;28;20047;-63
2023/03/25 04:39:08;;;;;;;4.95;1.08;;;8.90;99.90;;;;;;5056674;28;20017;-63
2023/03/25 04:41:34;;;;;;;3.13;0.55;;;8.90;99.90;;;;;;5056757;28;20056;-63
2023/03/25 04:43:59;;;;;;;3.00;0.60;;;8.90;99.90;;;;;;5056624;28;20040;-63
2023/03/25 04:46:25;;;;;;;4.32;1.02;;;9.00;99.90;;;;;;5057455;28;20021;-63
2023/03/25 04:48:52;;;;;;;3.05;1.33;;;9.00;99.90;;;;;;5056819;28;20032;-63
2023/03/25 04:51:18;;;;;;;1.75;0.65;;;9.00;99.90;;;;;;5057720;28;20101;-64
2023/03/25 04:53:44;;;;;;;2.70;0.70;;;8.90;99.90;;;;;;5056256;28;20052;-63
2023/03/25 04:56:16;;;;;;;3.33;0.50;;;8.90;99.90;;;;;;5056867;28;20020;-63
2023/03/25 04:58:42;;;;;;;7.47;0.90;;;8.90;99.90;;;;;;5056208;28;20099;-63
2023/03/25 05:01:20;;;;;;;0.63;0.40;;;8.80;99.90;;;;;;5057808;28;20082;-63
2023/03/25 05:03:49;;;;;;;2.83;0.90;;;8.70;99.90;;;;;;5056624;28;20025;-63
2023/03/25 05:06:17;;;;;;;0.95;0.52;;;8.70;99.90;;;;;;5056993;28;20104;-63
2023/03/25 05:08:43;;;;;;;1.50;0.50;;;8.70;99.90;;;;;;5056223;28;20111;-63
2023/03/25 05:11:08;;;;;;;1.90;0.47;;;8.70;99.90;;;;;;5056193;28;20063;-63
2023/03/25 05:13:34;;;;;;;8.93;0.60;;;8.60;99.90;;;;;;5056156;28;20021;-63
2023/03/25 05:16:00;;;;;;;1.35;0.60;;;8.60;99.90;;;;;;5055974;28;20068;-63
2023/03/25 05:18:25;;;;;;;2.75;0.60;;;8.60;99.90;;;;;;5056939;28;20029;-63
2023/03/25 05:20:52;;;;;;;2.95;0.60;;;8.60;99.90;;;;;;5056062;28;20028;-63
2023/03/25 05:23:18;;;;;;;5.28;0.50;;;8.50;99.90;;;;;;5056976;28;20021;-63
2023/03/25 05:25:46;;;;;;;4.95;0.70;;;8.60;99.90;;;;;;5056926;28;20028;-63
2023/03/25 05:28:12;;;;;;;1.30;0.55;;;8.60;99.90;;;;;;5056137;28;20142;-64
2023/03/25 05:30:40;;;;;;;3.25;0.50;;;8.60;99.90;;;;;;5057083;28;20044;-63
2023/03/25 05:33:09;;;;;;;4.35;0.88;;;8.60;99.90;;;;;;5056757;28;20025;-63
2023/03/25 05:35:36;;;;;;;2.53;0.47;;;8.60;99.90;;;;;;5056103;28;20025;-63
2023/03/25 05:38:03;;;;;;;1.20;0.57;;;8.60;99.90;;;;;;5055824;28;20031;-63
2023/03/25 05:41:03;;;;;;;3.40;0.60;;;8.60;99.90;;;;;;5055654;28;20040;-63
2023/03/25 05:43:34;;;;;;;2.75;0.90;;;8.50;99.90;;;;;;5057049;28;20049;-63
2023/03/25 05:46:00;;;;;;;7.28;0.70;;;8.50;99.90;;;;;;5056288;28;20033;-63
2023/03/25 05:48:25;;;;;;;5.00;0.60;;;8.50;99.90;;;;;;5055780;28;20103;-63
2023/03/25 05:50:55;;;;;;;0.75;0.20;;;8.50;99.90;;;;;;5056685;28;20017;-63
2023/03/25 05:53:21;;;;;;;5.00;0.50;;;8.40;99.90;;;;;;5057253;28;20059;-63
2023/03/25 05:55:49;;;;;;;1.58;0.40;;;8.40;99.90;;;;;;5055846;28;20060;-63
2023/03/25 05:58:16;;;;;;;2.08;0.52;;;8.40;99.90;;;;;;5056158;28;20021;-63
2023/03/25 06:00:42;;;;;;;2.38;0.50;;;8.50;99.90;;;;;;5056561;28;20048;-63
2023/03/25 06:03:08;;;;;;;2.55;0.55;;;8.60;99.90;;;;;;5055682;28;20043;-63
2023/03/25 06:05:33;;;;;;;7.25;1.27;;;8.60;99.90;;;;;;5056034;28;20025;-64
2023/03/25 06:08:00;;;;;;;3.47;1.45;;;8.60;99.90;;;;;;5055618;28;20079;-63
2023/03/25 06:10:26;;;;;;;3.15;0.70;;;8.60;99.90;;;;;;5056985;28;20017;-63
2023/03/25 06:12:52;;;;;;;1.75;0.47;;;8.60;99.90;;;;;;5056654;28;20049;-63
2023/03/25 06:15:27;;;;;;;3.67;0.50;;;8.60;99.90;;;;;;5059413;28;20112;-63
2023/03/25 06:17:56;;;;;;;2.60;0.60;;;8.70;99.90;;;;;;5059375;28;20028;-63
2023/03/25 06:20:21;;;;;;;1.48;0.30;;;8.70;99.90;;;;;;5059458;28;20025;-63
2023/03/25 06:22:47;;;;;;;2.55;0.52;;;8.70;99.90;;;;;;5060445;28;20111;-63
2023/03/25 06:25:19;;;;;;;1.55;0.40;;;8.60;99.90;;;;;;5059601;28;20060;-63
2023/03/25 06:27:47;;;;;;;3.03;0.65;;;8.60;99.90;;;;;;5059004;28;20025;-63
2023/03/25 06:30:15;;;;;;;3.08;0.77;;;8.70;99.90;;;;;;5060360;28;20021;-64
2023/03/25 06:32:41;;;;;;;1.08;0.43;;;8.70;99.90;;;;;;5059145;28;20053;-65
2023/03/25 06:35:09;;;;;;;2.67;0.52;;;8.80;99.90;;;;;;5059022;28;20063;-65
2023/03/25 06:37:35;;;;;;;3.55;0.77;;;8.70;99.90;;;;;;5059003;28;20025;-65
2023/03/25 06:40:01;;;;;;;2.58;0.45;;;8.70;99.90;;;;;;5058979;28;20128;-65
2023/03/25 06:42:43;;;;;;;3.75;0.40;;;8.70;99.90;;;;;;5060156;28;20048;-65
2023/03/25 06:45:09;;;;;;;3.50;0.47;;;8.80;99.90;;;;;;5058920;28;20021;-65
2023/03/25 06:47:34;;;;;;;4.85;0.68;;;8.80;99.90;;;;;;5059773;28;20080;-65
2023/03/25 06:50:00;;;;;;;2.17;0.57;;;8.90;99.90;;;;;;5059096;28;20025;-65
2023/03/25 06:52:25;;;;;;;1.83;0.32;;;8.80;99.90;;;;;;5058829;28;20029;-65
2023/03/25 06:54:51;;;;;;;1.70;0.40;;;8.80;99.90;;;;;;5059487;28;20033;-65
2023/03/25 06:57:16;;;;;;;5.07;0.88;;;8.80;99.90;;;;;;5059543;28;20020;-65
2023/03/25 06:59:42;;;;;;;3.17;0.40;;;8.90;99.90;;;;;;5058795;28;20042;-65
2023/03/25 07:02:11;;;;;;;2.55;0.32;;;9.00;99.90;;;;;;5059270;28;20088;-65
2023/03/25 07:04:36;;;;;;;2.63;0.40;;;9.20;99.90;;;;;;5058444;28;20021;-65
2023/03/25 07:07:02;;;;;;;2.75;0.60;;;9.20;99.90;;;;;;5058467;28;20017;-65
2023/03/25 07:09:27;;;;;;;2.08;0.52;;;9.20;99.90;;;;;;5058787;28;20047;-65
2023/03/25 07:11:53;;;;;;;5.57;1.00;;;9.30;99.90;;;;;;5058299;28;20025;-65
2023/03/25 07:14:18;;;;;;;7.15;0.85;;;9.40;99.90;;;;;;5059005;28;20029;-65
2023/03/25 07:16:44;;;;;;;3.67;0.80;;;9.40;99.90;;;;;;5059379;28;20021;-65
2023/03/25 07:19:10;;;;;;;2.95;0.70;;;9.50;99.90;;;;;;5058590;28;20025;-65
2023/03/25 07:21:35;;;;;;;1.48;0.40;;;9.40;99.90;;;;;;5059593;28;20049;-65
2023/03/25 07:24:01;;;;;;;7.90;0.30;;;9.40;99.90;;;;;;5058003;28;20017;-65
2023/03/25 07:26:26;;;;;;;1.92;0.30;;;9.40;99.90;;;;;;5057709;28;20035;-65
2023/03/25 07:28:52;;;;;;;2.00;0.32;;;9.50;99.90;;;;;;5059071;28;20021;-65
2023/03/25 07:31:17;;;;;;;4.22;0.60;;;9.50;99.90;;;;;;5058004;28;20021;-65
2023/03/25 07:33:43;;;;;;;3.65;0.40;;;9.50;99.90;;;;;;5058973;28;20013;-66
2023/03/25 07:36:11;;;;;;;0.30;0.20;;;9.60;99.90;;;;;;5059009;28;20111;-66
2023/03/25 07:38:37;;;;;;;1.70;0.28;;;9.60;99.90;;;;;;5058715;28;20025;-66
2023/03/25 07:41:11;;;;;;;1.83;0.43;;;9.70;99.90;;;;;;5058403;28;20094;-65
2023/03/25 07:43:37;;;;;;;3.30;0.60;;;9.50;99.90;;;;;;5058150;28;20031;-66
2023/03/25 07:46:03;;;;;;;1.42;0.28;;;9.50;99.90;;;;;;5057693;28;20021;-66
2023/03/25 07:48:29;;;;;;;1.30;0.47;;;9.70;99.90;;;;;;5058752;28;20032;-66
2023/03/25 07:50:55;;;;;;;3.63;0.57;;;9.70;99.90;;;;;;5057635;28;20021;-66
2023/03/25 07:53:20;;;;;;;3.00;0.45;;;9.60;99.90;;;;;;5058683;28;20060;-66
2023/03/25 07:55:47;;;;;;;3.95;0.45;;;9.60;99.90;;;;;;5057790;28;20071;-66
2023/03/25 07:58:12;;;;;;;1.48;0.45;;;9.50;99.90;;;;;;5058314;28;20084;-66
2023/03/25 08:00:38;;;;;;;3.30;0.52;;;9.60;99.90;;;;;;5057584;28;20059;-66
2023/03/25 08:03:04;;;;;;;2.92;0.95;;;9.70;99.90;;;;;;5057423;28;20028;-66
2023/03/25 08:05:30;;;;;;;3.67;0.50;;;9.70;99.90;;;;;;5057335;28;20021;-66
2023/03/25 08:07:59;;;;;;;6.30;0.93;;;9.80;99.90;;;;;;5057363;28;20102;-66
2023/03/25 08:10:25;;;;;;;2.88;0.50;;;9.90;99.90;;;;;;5058137;28;20151;-66
2023/03/25 08:12:55;;;;;;;2.97;0.63;;;9.90;99.90;;;;;;5057108;28;20029;-67
2023/03/25 08:15:23;;;;;;;5.50;0.63;;;10.00;99.90;;;;;;5056945;28;20029;-66
2023/03/25 08:17:51;;;;;;;2.22;0.50;;;10.00;99.90;;;;;;5057936;28;20032;-66
2023/03/25 08:20:16;;;;;;;1.40;0.40;;;10.00;99.90;;;;;;5057427;28;20059;-65
2023/03/25 08:22:44;;;;;;;1.65;0.65;;;10.00;99.90;;;;;;5057887;28;20017;-65
2023/03/25 08:25:09;;;;;;;5.43;0.77;;;10.00;99.90;;;;;;5057103;28;20033;-66
2023/03/25 08:27:35;;;;;;;3.70;0.82;;;10.00;99.90;;;;;;5057084;28;20035;-66
2023/03/25 08:30:00;;;;;;;3.03;0.77;;;10.10;99.90;;;;;;5057015;28;20025;-66
2023/03/25 08:32:27;;;;;;;1.63;0.55;;;10.10;99.90;;;;;;5057223;28;20029;-65
2023/03/25 08:34:53;;;;;;;3.30;0.73;;;10.10;99.90;;;;;;5056617;28;20025;-65
2023/03/25 08:37:20;;;;;;;5.13;1.00;;;10.10;99.90;;;;;;5056848;28;20056;-65
2023/03/25 08:39:49;;;;;;;4.18;0.93;;;10.10;99.90;;;;;;5056653;28;20017;-65
2023/03/25 08:42:16;;;;;;;4.70;0.90;;;10.10;99.90;;;;;;5057523;28;20024;-65
2023/03/25 08:44:41;;;;;;;5.30;1.17;;;10.20;99.90;;;;;;5057124;28;20032;-66
2023/03/25 08:47:07;;;;;;;6.18;1.15;;;10.20;99.90;;;;;;5057878;28;20032;-65
2023/03/25 08:49:33;;;;;;;5.50;1.33;;;10.20;99.90;;;;;;5056779;28;20029;-66
2023/03/25 08:52:07;;;;;;;4.75;0.60;;;10.30;99.90;;;;;;5057201;28;20028;-66
2023/03/25 08:54:33;;;;;;;7.97;1.35;;;10.40;99.90;;;;;;5056485;28;20021;-66
2023/03/25 08:56:58;;;;;;;2.28;0.70;;;10.40;99.90;;;;;;5056359;28;20021;-66
2023/03/25 08:59:24;;;;;;;5.82;0.65;;;10.50;99.90;;;;;;5057328;28;20043;-66
2023/03/25 09:01:50;;;;;;;4.55;1.80;;;10.50;99.90;;;;;;5056878;28;20119;-66
2023/03/25 09:04:15;;;;;;;6.45;1.30;;;10.60;99.90;;;;;;5056251;28;20068;-66
2023/03/25 09:06:41;;;;;;;2.50;1.05;;;10.50;99.90;;;;;;5057152;28;20108;-66
2023/03/25 09:09:09;;;;;;;3.85;1.10;;;10.50;99.90;;;;;;5056264;28;20032;-66
2023/03/25 09:11:35;;;;;;;5.38;1.20;;;10.40;99.90;;;;;;5057132;28;20021;-65
2023/03/25 09:14:02;;;;;;;3.83;0.90;;;10.20;99.90;;;;;;5056879;28;20047;-65
2023/03/25 09:16:28;;;;;;;4.30;1.00;;;10.10;99.90;;;;;;5057270;28;20147;-66
2023/03/25 09:18:54;;;;;;;4.60;0.70;;;10.00;99.90;;;;;;5057212;28;20022;-66
2023/03/25 09:21:20;;;;;;;7.18;1.33;;;10.00;99.90;;;;;;5056944;28;20032;-66
2023/03/25 09:23:45;;;;;;;4.53;0.80;;;10.10;99.90;;;;;;5056031;28;20021;-66
2023/03/25 09:26:11;;;;;;;4.88;1.08;;;9.90;99.90;;;;;;5056376;28;20036;-66
2023/03/25 09:28:36;;;;;;;3.40;0.90;;;9.70;99.90;;;;;;5056832;28;20029;-66
2023/03/25 09:31:02;;;;;;;1.48;0.52;;;9.00;99.90;;;;;;5056675;28;20029;-66
2023/03/25 09:33:27;;;;;;;1.95;0.60;;;8.30;99.90;;;;;;5056033;28;20032;-66
2023/03/25 09:35:54;;;;;;;1.58;0.73;;;7.50;99.90;;;;;;5056151;28;20025;-66
2023/03/25 09:38:19;;;;;;;0.95;0.40;;;7.20;99.90;;;;;;5056791;28;20022;-66
2023/03/25 09:40:45;;;;;;;3.90;0.40;;;6.90;99.90;;;;;;5054955;28;20098;-66
2023/03/25 09:43:50;;;;;;;3.15;0.30;;;6.80;99.90;;;;;;5036848;28;20025;-66
2023/03/25 09:46:17;;;;;;;0.30;0.28;;;6.60;99.90;;;;;;5037046;28;20089;-66
2023/03/25 09:48:45;;;;;;;1.65;0.20;;;6.50;99.90;;;;;;5036389;28;20022;-66
2023/03/25 09:51:21;;;;;;;2.88;0.88;;;6.50;99.90;;;;;;5040050;28;20072;-66
2023/03/25 09:54:14;;;;;;;1.20;0.40;;;6.50;99.90;;;;;;5039891;28;20026;-66
2023/03/25 09:56:42;;;;;;;6.13;0.70;;;6.50;99.90;;;;;;5040836;28;20029;-66
2023/03/25 09:59:14;;;;;;;3.35;0.55;;;6.60;99.90;;;;;;5039734;28;20041;-66
2023/03/25 10:02:09;;;;;;;1.48;0.80;;;6.60;99.90;;;;;;5040268;28;20025;-66
2023/03/25 10:04:53;;;;;;;3.47;0.50;;;6.70;99.90;;;;;;5040569;28;20036;-66
2023/03/25 10:07:37;;;;;;;2.17;0.47;;;6.80;99.90;;;;;;5040867;28;20021;-66
2023/03/25 10:10:26;;;;;;;1.00;0.30;;;7.00;99.90;;;;;;5039666;28;20025;-65
2023/03/25 10:13:30;;;;;;;0.90;0.35;;;7.10;99.90;;;;;;5039830;28;20026;-66
2023/03/25 10:16:07;;;;;;;1.42;0.75;;;7.30;99.90;;;;;;5040375;28;20104;-65
2023/03/25 10:19:04;;;;;;;1.60;0.60;;;7.50;99.90;;;;;;5040474;28;20044;-65
2023/03/25 10:22:01;;;;;;;0.90;0.63;;;7.70;99.90;;;;;;5039525;28;20021;-65
2023/03/25 10:24:33;;;;;;;1.38;0.50;;;8.00;99.90;;;;;;5040097;28;20033;-65
2023/03/25 10:27:22;;;;;;;2.00;0.73;;;8.00;99.90;;;;;;5040076;28;20032;-65
2023/03/25 10:30:01;;;;;;;1.45;0.50;;;8.20;99.90;;;;;;5040455;28;20029;-65
2023/03/25 10:32:50;;;;;;;0.90;0.80;;;8.40;99.90;;;;;;5039392;28;20091;-65
2023/03/25 10:35:19;;;;;;;4.00;0.68;;;8.50;99.90;;;;;;5039691;28;20025;-65
2023/03/25 10:37:47;;;;;;;3.60;0.90;;;8.90;99.90;;;;;;5039163;28;20107;-65
2023/03/25 10:40:14;;;;;;;2.83;0.77;;;9.30;99.90;;;;;;5039002;28;20119;-66
2023/03/25 10:43:03;;;;;;;1.20;0.60;;;9.70;99.90;;;;;;5039435;28;20047;-66
2023/03/25 10:45:29;;;;;;;0.93;0.80;;;10.30;99.90;;;;;;5038927;28;20072;-66
2023/03/25 10:48:20;;;;;;;1.00;0.50;;;10.70;99.90;;;;;;5039200;28;20022;-66
2023/03/25 10:50:46;;;;;;;2.17;0.80;;;11.10;99.90;;;;;;5038117;28;20033;-65
2023/03/25 10:53:23;;;;;;;2.60;0.70;;;11.30;99.90;;;;;;5038819;28;20025;-65
2023/03/25 10:55:54;;;;;;;2.15;1.20;;;11.50;99.90;;;;;;5039552;28;20026;-64
2023/03/25 10:58:20;;;;;;;6.75;1.83;;;11.20;99.90;;;;;;5039092;28;20060;-65
2023/03/25 11:00:46;;;;;;;4.40;1.38;;;11.00;99.90;;;;;;5038575;28;20045;-65
2023/03/25 11:03:26;;;;;;;2.80;1.23;;;10.90;99.90;;;;;;5039411;28;20096;-65
2023/03/25 11:05:52;;;;;;;1.73;0.77;;;10.90;99.90;;;;;;5039371;28;20036;-65
2023/03/25 11:08:23;;;;;;;5.45;1.67;;;10.90;99.90;;;;;;5039320;28;20025;-65
2023/03/25 11:10:54;;;;;;;3.60;0.90;;;10.90;99.90;;;;;;5038479;28;20052;-65
2023/03/25 11:13:24;;;;;;;2.33;0.70;;;10.90;99.90;;;;;;5038506;28;20116;-65
2023/03/25 11:15:52;;;;;;;1.45;0.65;;;10.80;99.90;;;;;;5038297;28;20029;-65
2023/03/25 11:18:27;;;;;;;6.57;0.88;;;10.90;99.90;;;;;;5038337;28;20021;-65
2023/03/25 11:21:17;;;;;;;2.75;0.90;;;10.90;99.90;;;;;;5039186;28;20049;-66
2023/03/25 11:23:49;;;;;;;5.65;0.68;;;10.90;99.90;;;;;;5038541;28;20029;-66
2023/03/25 11:26:17;;;;;;;4.28;0.70;;;10.90;99.90;;;;;;5039246;28;20029;-66
2023/03/25 11:28:49;;;;;;;2.88;1.08;;;10.90;99.90;;;;;;5038900;28;20044;-65
2023/03/25 11:31:20;;;;;;;1.77;0.60;;;11.00;99.90;;;;;;5038181;28;20093;-65
2023/03/25 11:34:02;;;;;;;1.92;0.93;;;11.00;99.90;;;;;;5037957;28;20096;-65
2023/03/25 11:36:30;;;;;;;2.65;0.73;;;11.20;99.90;;;;;;5037911;28;20120;-65
2023/03/25 11:38:58;;;;;;;2.53;0.80;;;11.30;99.90;;;;;;5048885;28;20025;-65
2023/03/25 11:41:29;;;;;;;2.63;1.00;;;11.50;99.90;;;;;;5057729;28;20052;-66
2023/03/25 11:43:55;;;;;;;4.47;0.90;;;11.60;99.90;;;;;;5057960;28;20053;-65
2023/03/25 11:46:22;;;;;;;3.05;1.30;;;11.70;99.90;;;;;;5057622;28;20028;-65
2023/03/25 11:48:49;;;;;;;2.22;0.88;;;11.90;99.90;;;;;;5057602;28;20029;-66
2023/03/25 11:51:27;;;;;;;3.35;0.43;;;12.60;99.90;;;;;;5058424;28;20021;-66
2023/03/25 11:53:59;;;;;;;4.72;1.00;;;13.40;99.90;;;;;;5057913;28;20025;-66
2023/03/25 11:56:32;;;;;;;4.28;0.80;;;14.30;99.90;;;;;;5057615;28;20025;-66
2023/03/25 11:59:00;;;;;;;4.60;1.13;;;14.30;99.90;;;;;;5057868;28;20112;-66
2023/03/25 12:01:36;;;;;;;4.90;2.35;;;14.20;99.90;;;;;;5057532;28;20084;-65
2023/03/25 12:04:12;;;;;;;15.93;5.10;;;14.50;99.90;;;;;;5057552;28;20025;-65
2023/03/25 12:06:52;;;;;;;9.15;3.00;;;14.80;99.90;;;;;;5057558;28;20142;-66
2023/03/25 12:09:18;;;;;;;3.78;0.63;;;15.60;99.90;;;;;;5058288;28;20029;-66
2023/03/25 12:12:02;;;;;;;4.20;1.13;;;16.00;99.90;;;;;;5057048;28;20028;-66
2023/03/25 12:14:58;;;;;;;3.58;1.10;;;15.10;99.90;;;;;;5058103;28;20025;-66
2023/03/25 12:17:42;;;;;;;4.97;1.00;;;14.50;99.90;;;;;;5058036;28;20017;-66
2023/03/25 12:20:33;;;;;;;4.82;0.82;;;14.20;99.90;;;;;;5057197;28;20029;-66
2023/03/25 12:23:09;;;;;;;4.00;1.40;;;14.60;99.90;;;;;;5057400;28;20051;-66
2023/03/25 12:25:48;;;;;;;3.05;0.93;;;15.40;99.90;;;;;;5057137;28;20033;-66
2023/03/25 12:29:01;;;;;;;6.28;0.88;;;15.60;99.90;;;;;;5058354;28;20043;-65
2023/03/25 12:31:52;;;;;;;8.38;1.40;;;15.90;99.90;;;;;;5057003;28;20028;-65
2023/03/25 12:34:36;;;;;;;4.13;1.33;;;16.60;99.90;;;;;;5056957;28;20029;-65
2023/03/25 12:37:22;;;;;;;3.60;0.70;;;16.80;99.90;;;;;;5057951;28;20017;-65
2023/03/25 12:40:23;;;;;;;3.63;1.45;;;16.50;99.90;;;;;;5057498;28;20123;-65
2023/03/25 12:43:10;;;;;;;4.37;1.23;;;16.00;99.90;;;;;;5057931;28;20024;-65
2023/03/25 12:45:42;;;;;;;2.92;1.17;;;15.80;99.90;;;;;;5057221;28;20329;-65
2023/03/25 12:48:33;;;;;;;2.42;0.70;;;15.40;99.90;;;;;;5057435;28;20033;-65
2023/03/25 12:51:43;;;;;;;3.03;0.90;;;15.00;99.90;;;;;;5057865;28;20036;-65
2023/03/25 12:54:27;;;;;;;2.95;0.70;;;15.80;99.90;;;;;;5041351;28;20124;-65
2023/03/25 12:57:30;;;;;;;3.95;0.60;;;16.60;99.90;;;;;;5056541;28;20075;-65
2023/03/25 13:00:17;;;;;;;0.93;0.32;;;16.80;99.90;;;;;;5056370;28;20032;-65
2023/03/25 13:03:11;;;;;;;1.55;0.60;;;16.90;99.90;;;;;;5056447;28;20082;-65
2023/03/25 13:05:59;;;;;;;1.75;0.65;;;17.30;99.90;;;;;;5056852;28;20116;-65
2023/03/25 13:08:35;;;;;;;2.60;0.88;;;17.50;99.90;;;;;;5056323;28;20025;-65
2023/03/25 13:12:05;;;;;;;6.75;0.80;;;17.40;99.90;;;;;;5056019;28;20211;-65
2023/03/25 13:14:45;;;;;;;1.17;0.47;;;17.10;99.90;;;;;;4979652;28;20045;-65
2023/03/25 13:17:20;;;;;;;3.00;0.50;;;16.10;99.90;;;;;;4980099;28;20035;-65
2023/03/25 13:19:47;;;;;;;3.10;0.57;;;15.50;99.90;;;;;;4996371;28;20026;-65